Flight Track Log - Related Links

Times and Time Zones

All times are in EDT time to prevent confusion due to time zone crossing. See the SWA3141 flight status page for this flight to view local times or setup timezone preferences in your user account.


Time Position Orientation Groundspeed Altitude Reporting Facility
EDT Latitude Longitude Course Direction KTS MPH feet Rate Location/Type
Fri 12:42:49 AM 33.4333 -112.0333 270° West 159 183 2,300  Level Phoenix TRACON
Fri 12:43:38 AM 33.4333 -112.0833 270° West 202 232 3,900 2,312 Climbing Phoenix TRACON
Fri 12:44:38 AM 33.4333 -112.1667 348° North 226 260 6,500 2,400 Climbing Phoenix TRACON
Fri 12:45:38 AM 33.5000 -112.1833 32° Northeast 286 329 8,700 2,250 Climbing Phoenix TRACON
Fri 12:46:38 AM 33.5667 -112.1333 34° Northeast 320 368 11,000 2,400 Climbing Phoenix TRACON
Fri 12:47:38 AM 33.6500 -112.0667 35° Northeast 340 391 13,500 2,321 Climbing Phoenix TRACON
Fri 12:49:26 AM 33.7800 -111.9572 35° Northeast 366 421 17,500 2,308 Climbing Albuquerque Center
Fri 12:50:27 AM 33.8775 -111.8747 35° Northeast 368 423 20,000 2,164 Climbing Albuquerque Center
Fri 12:51:28 AM 33.9658 -111.8006 34° Northeast 381 438 21,900 1,770 Climbing Albuquerque Center
Fri 12:52:29 AM 34.0647 -111.7208 17° North 396 456 23,600 1,525 Climbing Albuquerque Center
Fri 12:53:30 AM 34.1667 -111.6833 17° North 413 475 25,000 1,377 Climbing Albuquerque Center
Fri 12:54:31 AM 34.2825 -111.6411 350° North 425 489 26,400 1,230 Climbing Albuquerque Center
Fri 12:55:32 AM 34.4033 -111.6672 346° North 434 499 27,500 1,180 Climbing Albuquerque Center
Fri 12:56:33 AM 34.5244 -111.7042 346° North 443 510 28,800 1,131 Climbing Albuquerque Center
Fri 12:57:34 AM 34.6472 -111.7422 346° North 446 513 29,800 1,131 Climbing Albuquerque Center
Fri 12:58:35 AM 34.7789 -111.7822 346° North 452 520 31,100 1,190 Climbing Albuquerque Center
Fri 12:59:35 AM 34.9008 -111.8181 346° North 455 524 32,200 1,041 Climbing Albuquerque Center
Fri 01:00:36 AM 35.0225 -111.8564 346° North 455 524 33,200 878 Climbing Albuquerque Center
Fri 01:01:38 AM 35.1444 -111.8933 347° North 456 525 34,000 533 Climbing Albuquerque Center
Fri 01:02:06 AM 35.2153 -111.9136 345° North 453 521 34,000  Level Los Angeles Center
Fri 01:03:06 AM 35.3375 -111.9531 346° North 453 521 34,000  Level Los Angeles Center
Fri 01:05:42 AM 35.6517 -112.0486 343° North 452 520 34,000  Level Albuquerque Center
Fri 01:06:06 AM 35.7022 -112.0675 346° North 453 521 34,000  Level Los Angeles Center
Fri 01:07:06 AM 35.8267 -112.1047 345° North 453 521 34,000  Level Los Angeles Center
Fri 01:08:06 AM 35.9489 -112.1450 340° North 453 521 34,000  Level Los Angeles Center
Fri 01:09:06 AM 36.0697 -112.2006 338° Northwest 458 527 34,000  Level Los Angeles Center
Fri 01:10:06 AM 36.1864 -112.2592 340° North 458 527 34,000  Level Los Angeles Center
Fri 01:11:06 AM 36.3047 -112.3128 338° Northwest 452 520 34,000 50 Level Los Angeles Center
Fri 01:12:06 AM 36.4214 -112.3717 338° Northwest 452 520 34,100 1,000 Climbing Los Angeles Center
Fri 01:13:06 AM 36.5336 -112.4283 339° North 447 514 36,000 950 Climbing Los Angeles Center
Fri 01:14:06 AM 36.6500 -112.4850 338° Northwest 442 509 36,000  Level Los Angeles Center
Fri 01:15:06 AM 36.7644 -112.5419 337° Northwest 442 509 36,000  Level Los Angeles Center
Fri 01:16:06 AM 36.8681 -112.5969 338° Northwest 442 509 36,000  Level Los Angeles Center
Fri 01:17:06 AM 36.9825 -112.6542 338° Northwest 442 509 36,000  Level Los Angeles Center
Fri 01:18:46 AM 37.1642 -112.7478 338° Northwest 444 511 36,000  Level Salt Lake Center
Fri 01:19:47 AM 37.2800 -112.8075 338° Northwest 442 509 36,000  Level Salt Lake Center
Fri 01:20:48 AM 37.3961 -112.8672 338° Northwest 442 509 36,000  Level Salt Lake Center
Fri 01:21:49 AM 37.5219 -112.9319 337° Northwest 444 511 36,000  Level Salt Lake Center
Fri 01:22:50 AM 37.6378 -112.9931 338° Northwest 449 517 36,000  Level Salt Lake Center
Fri 01:23:51 AM 37.7564 -113.0539 323° Northwest 449 517 36,000  Level Salt Lake Center
Fri 01:24:52 AM 37.8564 -113.1486 318° Northwest 445 512 36,000  Level Salt Lake Center
Fri 01:25:53 AM 37.9483 -113.2539 318° Northwest 441 507 36,000  Level Salt Lake Center
Fri 01:26:54 AM 38.0511 -113.3719 317° Northwest 441 507 36,000  Level Salt Lake Center
Fri 01:27:55 AM 38.1331 -113.4678 318° Northwest 443 510 36,000  Level Salt Lake Center
Fri 01:28:56 AM 38.2267 -113.5744 318° Northwest 445 512 36,000  Level Salt Lake Center
Fri 01:29:57 AM 38.3197 -113.6822 317° Northwest 444 511 36,000  Level Salt Lake Center
Fri 01:30:58 AM 38.4131 -113.7919 317° Northwest 447 514 36,000  Level Salt Lake Center
Fri 01:31:59 AM 38.5069 -113.9025 318° Northwest 450 518 36,000  Level Salt Lake Center
Fri 01:33:00 AM 38.6014 -114.0128 318° Northwest 452 520 36,000  Level Salt Lake Center
Fri 01:34:01 AM 38.6953 -114.1231 317° Northwest 451 519 36,000  Level Salt Lake Center
Fri 01:35:02 AM 38.7886 -114.2336 317° Northwest 451 519 36,000  Level Salt Lake Center
Fri 01:36:03 AM 38.8806 -114.3431 317° Northwest 446 513 36,000  Level Salt Lake Center
Fri 01:37:04 AM 38.9711 -114.4517 317° Northwest 441 507 36,000  Level Salt Lake Center
Fri 01:38:05 AM 39.0617 -114.5606 317° Northwest 439 505 36,000  Level Salt Lake Center
Fri 01:39:06 AM 39.1528 -114.6708 316° Northwest 441 507 36,000  Level Salt Lake Center
Fri 01:40:07 AM 39.2414 -114.7814 317° Northwest 445 512 36,000  Level Salt Lake Center
Fri 01:41:08 AM 39.3425 -114.9039 317° Northwest 446 513 36,000  Level Salt Lake Center
Fri 01:42:08 AM 39.4286 -115.0078 319° Northwest 444 511 36,000  Level Salt Lake Center
Fri 01:43:09 AM 39.5186 -115.1103 325° Northwest 447 514 36,000  Level Salt Lake Center
Fri 01:44:10 AM 39.6322 -115.2133 329° Northwest 457 526 36,000  Level Salt Lake Center
Fri 01:45:11 AM 39.7367 -115.2956 328° Northwest 458 527 36,000  Level Salt Lake Center
Fri 01:46:12 AM 39.8381 -115.3792 327° Northwest 452 520 36,000  Level Salt Lake Center
Fri 01:47:13 AM 39.9572 -115.4794 328° Northwest 455 524 36,000  Level Salt Lake Center
Fri 01:48:14 AM 40.0606 -115.5633 328° Northwest 457 526 36,000  Level Salt Lake Center
Fri 01:49:15 AM 40.1650 -115.6492 328° Northwest 460 529 36,000  Level Salt Lake Center
Fri 01:50:16 AM 40.2864 -115.7497 327° Northwest 463 533 36,000  Level Salt Lake Center
Fri 01:51:17 AM 40.3881 -115.8375 327° Northwest 462 532 36,000  Level Salt Lake Center
Fri 01:52:18 AM 40.5072 -115.9375 327° Northwest 459 528 36,000  Level Salt Lake Center
Fri 01:53:19 AM 40.6119 -116.0256 328° Northwest 462 532 36,000  Level Salt Lake Center
Fri 01:54:19 AM 40.7189 -116.1133 327° Northwest 470 541 36,000  Level Salt Lake Center
Fri 01:55:20 AM 40.8394 -116.2164 326° Northwest 469 540 36,000  Level Salt Lake Center
Fri 01:56:21 AM 40.9406 -116.3058 328° Northwest 464 534 36,000  Level Salt Lake Center
Fri 01:57:22 AM 41.0464 -116.3947 327° Northwest 466 536 36,000  Level Salt Lake Center
Fri 01:58:23 AM 41.1689 -116.5011 327° Northwest 470 541 36,000  Level Salt Lake Center
Fri 01:59:24 AM 41.2711 -116.5908 327° Northwest 465 535 36,000  Level Salt Lake Center
Fri 02:00:25 AM 41.3767 -116.6817 327° Northwest 463 533 36,000  Level Salt Lake Center
Fri 02:01:26 AM 41.4947 -116.7853 327° Northwest 464 534 36,000  Level Salt Lake Center
Fri 02:02:26 AM 41.5978 -116.8758 327° Northwest 464 534 36,000  Level Salt Lake Center
Fri 02:03:27 AM 41.7006 -116.9661 328° Northwest 463 533 36,000  Level Salt Lake Center
Fri 02:04:28 AM 41.8181 -117.0647 326° Northwest 453 521 36,000  Level Salt Lake Center
Fri 02:05:29 AM 41.9197 -117.1556 326° Northwest 454 522 36,000  Level Salt Lake Center
Fri 02:06:30 AM 42.0356 -117.2589 326° Northwest 450 518 36,000  Level Salt Lake Center
Fri 02:07:31 AM 42.1331 -117.3461 326° Northwest 443 510 36,000  Level Salt Lake Center
Fri 02:08:32 AM 42.2311 -117.4356 327° Northwest 444 511 36,000  Level Salt Lake Center
Fri 02:09:32 AM 42.3386 -117.5311 326° Northwest 442 509 36,000  Level Salt Lake Center
Fri 02:10:33 AM 42.4378 -117.6211 326° Northwest 445 512 36,000  Level Salt Lake Center
Fri 02:11:34 AM 42.5544 -117.7264 326° Northwest 448 516 36,000 -836 Level Salt Lake Center
Fri 02:12:35 AM 42.6536 -117.8172 326° Northwest 448 516 34,300 -984 Descending Salt Lake Center
Fri 02:13:36 AM 42.7519 -117.9072 326° Northwest 446 513 34,000 -934 Descending Salt Lake Center
Fri 02:14:37 AM 42.8683 -118.0153 327° Northwest 450 518 32,400 -992 Descending Salt Lake Center
Fri 02:15:37 AM 42.9722 -118.1092 325° Northwest 461 531 32,000 -253 Descending Salt Lake Center
Fri 02:16:12 AM 43.0378 -118.1714 326° Northwest 454 522 32,000  Level Seattle Center
Fri 02:17:13 AM 43.1383 -118.2650 327° Northwest 454 522 32,000  Level Seattle Center
Fri 02:17:39 AM 43.1758 -118.2986 326° Northwest 453 521 32,000  Level Salt Lake Center
Fri 02:18:40 AM 43.2794 -118.3947 325° Northwest 451 519 32,000  Level Salt Lake Center
Fri 02:19:41 AM 43.3825 -118.4925 325° Northwest 451 519 32,000  Level Salt Lake Center
Fri 02:20:14 AM 43.4519 -118.5586 326° Northwest 449 517 32,000  Level Seattle Center
Fri 02:21:14 AM 43.5531 -118.6528 325° Northwest 454 522 32,000  Level Seattle Center
Fri 02:22:15 AM 43.6517 -118.7467 326° Northwest 451 519 32,000  Level Seattle Center
Fri 02:22:43 AM 43.7125 -118.8044 326° Northwest 449 517 32,000  Level Salt Lake Center
Fri 02:23:44 AM 43.8164 -118.9022 324° Northwest 450 518 32,000  Level Salt Lake Center
Fri 02:24:16 AM 43.8567 -118.9422 326° Northwest 449 517 32,000  Level Seattle Center
Fri 02:24:45 AM 43.9194 -119.0006 316° Northwest 451 519 32,000  Level Salt Lake Center
Fri 02:25:46 AM 44.0058 -119.1186 312° West 436 502 32,000 -132 Level Salt Lake Center
Fri 02:26:16 AM 44.0378 -119.1681 311° West 434 499 31,800 -659 Descending Seattle Center
Fri 02:27:17 AM 44.1169 -119.2950 311° West 434 499 31,000 -397 Descending Seattle Center
Fri 02:28:17 AM 44.1964 -119.4214 310° West 434 499 31,000  Level Seattle Center
Fri 02:29:17 AM 44.2739 -119.5486 310° West 432 497 31,000  Level Seattle Center
Fri 02:30:18 AM 44.3506 -119.6761 312° West 429 494 31,000  Level Seattle Center
Fri 02:31:18 AM 44.4319 -119.8036 311° West 433 498 31,000  Level Seattle Center
Fri 02:32:18 AM 44.5100 -119.9317 311° West 431 496 31,000  Level Seattle Center
Fri 02:33:19 AM 44.5883 -120.0606 310° West 431 496 31,000  Level Seattle Center
Fri 02:34:19 AM 44.6678 -120.1928 310° West 437 503 31,000  Level Seattle Center
Fri 02:35:19 AM 44.7469 -120.3239 310° West 436 502 31,000  Level Seattle Center
Fri 02:36:20 AM 44.8258 -120.4547 310° West 436 502 31,000  Level Seattle Center
Fri 02:37:20 AM 44.9047 -120.5858 310° West 436 502 31,000  Level Seattle Center
Fri 02:38:20 AM 44.9822 -120.7169 310° West 434 499 31,000 -1,388 Level Seattle Center
Fri 02:39:21 AM 45.0597 -120.8478 310° West 433 498 28,200 -2,678 Descending Seattle Center
Fri 02:40:21 AM 45.1353 -120.9758 310° West 427 491 25,600 -2,550 Descending Seattle Center
Fri 02:41:21 AM 45.2075 -121.0981 309° West 411 473 23,100 -2,430 Descending Seattle Center
Fri 02:42:22 AM 45.2761 -121.2169 310° West 396 456 20,700 -2,331 Descending Seattle Center
Fri 02:43:22 AM 45.3439 -121.3328 310° West 384 442 18,400 -2,300 Descending Seattle Center
Fri 02:44:22 AM 45.4083 -121.4442 309° West 371 427 16,100 -2,494 Descending Seattle Center
Fri 02:44:51 AM 45.4492 -121.5164 309° West 368 423 14,700 -2,066 Descending Seattle Center
Fri 02:45:23 AM 45.4717 -121.5564 278° West 365 420 14,000 -1,875 Descending Seattle Center
Fri 02:45:39 AM 45.4769 -121.6092 281° West 348 400 13,200 -2,300 Descending Seattle Center
Fri 02:46:23 AM 45.4878 -121.6883 277° West 337 388 11,700 -2,459 Descending Seattle Center
Fri 02:46:40 AM 45.4931 -121.7519 280° West 339 390 10,700 -1,300 Descending Seattle Center
Fri 02:47:23 AM 45.5008 -121.8172 270° West 331 381 10,400 -590 Descending Seattle Center
Fri 02:47:41 AM 45.5006 -121.8708 271° West 317 365 10,100 -1,279 Descending Seattle Center
Fri 02:48:24 AM 45.5011 -121.9256 273° West 274 315 9,100 -1,900 Descending Seattle Center
Fri 02:48:41 AM 45.5033 -121.9794 271° West 278 320 8,200 -2,000 Descending Seattle Center
Fri 02:49:24 AM 45.5042 -122.0389 273° West 274 315 7,100 -1,672 Descending Seattle Center
Fri 02:49:42 AM 45.5058 -122.0881 273° West 276 318 6,500 -1,700 Descending Seattle Center
Fri 02:50:24 AM 45.5083 -122.1497 269° West 279 321 5,400 -1,770 Descending Seattle Center
Fri 02:50:43 AM 45.5078 -122.1939 275° West 274 315 4,700 -1,475 Descending Seattle Center
Fri 02:51:25 AM 45.5117 -122.2561 268° West 275 316 3,900 -700 Descending Seattle Center
Fri 02:51:43 AM 45.5108 -122.2958 272° West 250 288 4,000 -600 Climbing Seattle Center
Fri 02:52:25 AM 45.5122 -122.3444 273° West 236 272 3,300 -1,180 Descending Seattle Center
Fri 02:52:44 AM 45.5136 -122.3792 279° West 215 247 2,800 -900 Descending Seattle Center
Fri 02:53:25 AM 45.5186 -122.4242 293° West 210 242 2,400 -600 Descending Seattle Center
Fri 02:53:44 AM 45.5267 -122.4511 302° West 191 220 2,200 -885 Descending Seattle Center
Fri 02:54:26 AM 45.5408 -122.4839 296° West 187 215 1,500 -885 Descending Seattle Center
Fri 02:54:45 AM 45.5494 -122.5089 306° West 156 180 1,300 -600 Descending Seattle Center
Fri 02:55:26 AM 45.5606 -122.5311 292° West 162 186 900 -689 Descending Seattle Center
Fri 02:55:46 AM 45.5669 -122.5536 302° West 129 148 600 -400 Descending Seattle Center
Fri 02:56:26 AM 45.5800 -122.5833 302° West 150 173 500 -150 Descending Seattle Center

Login

Don't have an account? Register now (free) for customized features, flight alerts, and more!